createdAt,value
2018-10-06T00:01:38.879Z,4.07
2018-10-06T00:04:07.211Z,3.57
2018-10-06T00:06:35.287Z,6.43
2018-10-06T00:09:04.023Z,6.10
2018-10-06T00:11:32.792Z,5.00
2018-10-06T00:14:01.165Z,5.73
2018-10-06T00:16:29.408Z,4.53
2018-10-06T00:18:57.554Z,5.27
2018-10-06T00:21:26.249Z,3.87
2018-10-06T00:23:54.631Z,3.53
2018-10-06T00:26:23.225Z,4.33
2018-10-06T00:28:51.607Z,5.07
2018-10-06T00:31:20.127Z,4.57
2018-10-06T00:33:48.620Z,4.77
2018-10-06T00:36:17.120Z,3.60
2018-10-06T00:38:45.211Z,4.90
2018-10-06T00:41:13.806Z,3.70
2018-10-06T00:43:41.855Z,5.13
2018-10-06T00:46:10.227Z,3.90
2018-10-06T00:48:38.475Z,4.07
2018-10-06T00:51:06.993Z,3.43
2018-10-06T00:53:35.563Z,4.73
2018-10-06T00:56:03.963Z,4.80
2018-10-06T00:58:32.441Z,5.70
2018-10-06T01:01:01.046Z,4.92
2018-10-06T01:03:29.270Z,3.70
2018-10-06T01:05:57.664Z,4.13
2018-10-06T01:08:26.063Z,4.33
2018-10-06T01:10:54.421Z,3.97
2018-10-06T01:13:22.895Z,5.37
2018-10-06T01:15:51.002Z,4.53
2018-10-06T01:18:19.903Z,4.23
2018-10-06T01:20:48.522Z,8.40
2018-10-06T01:23:16.666Z,4.43
2018-10-06T01:25:44.972Z,6.17
2018-10-06T01:28:14.163Z,3.90
2018-10-06T01:30:42.684Z,5.27
2018-10-06T01:33:11.630Z,3.70
2018-10-06T01:35:39.700Z,4.23
2018-10-06T01:38:07.799Z,6.00
2018-10-06T01:40:35.942Z,4.83
2018-10-06T01:43:04.109Z,5.23
2018-10-06T01:45:32.176Z,4.23
2018-10-06T01:48:00.254Z,3.47
2018-10-06T01:50:28.509Z,6.13
2018-10-06T01:52:56.619Z,3.63
2018-10-06T01:55:24.700Z,6.17
2018-10-06T01:57:52.771Z,3.40
2018-10-06T02:00:20.826Z,3.67
2018-10-06T02:02:48.995Z,5.40
2018-10-06T02:05:17.074Z,3.53
2018-10-06T02:07:45.146Z,8.70
2018-10-06T02:10:13.219Z,3.37
2018-10-06T02:12:41.302Z,3.47
2018-10-06T02:15:09.383Z,4.23
2018-10-06T02:17:37.484Z,5.03
2018-10-06T02:20:05.550Z,3.47
2018-10-06T02:22:33.611Z,5.23
2018-10-06T02:25:01.672Z,2.90
2018-10-06T02:27:29.736Z,7.27
2018-10-06T02:29:57.836Z,5.37
2018-10-06T02:32:25.881Z,5.13
2018-10-06T02:34:53.955Z,4.57
2018-10-06T02:37:22.340Z,4.90
2018-10-06T02:39:50.656Z,3.90
2018-10-06T02:42:18.734Z,3.83
2018-10-06T02:44:46.803Z,4.33
2018-10-06T02:47:14.930Z,6.17
2018-10-06T02:49:42.998Z,5.37
2018-10-06T02:52:11.074Z,5.20
2018-10-06T02:54:39.143Z,6.20
2018-10-06T02:57:07.411Z,4.63
2018-10-06T02:59:35.490Z,4.67
2018-10-06T03:02:03.579Z,4.43
2018-10-06T03:04:31.638Z,8.20
2018-10-06T03:06:59.814Z,4.70
2018-10-06T03:09:27.882Z,4.30
2018-10-06T03:11:55.950Z,4.40
2018-10-06T03:14:24.010Z,3.50
2018-10-06T03:16:52.418Z,6.70
2018-10-06T03:19:20.506Z,4.57
2018-10-06T03:21:48.571Z,4.60
2018-10-06T03:24:16.634Z,4.40
2018-10-06T03:26:44.703Z,4.47
2018-10-06T03:29:12.928Z,4.33
2018-10-06T03:31:40.978Z,5.23
2018-10-06T03:34:09.161Z,5.13
2018-10-06T03:36:37.243Z,4.57
2018-10-06T03:39:06.054Z,6.30
2018-10-06T03:41:34.535Z,4.20
2018-10-06T03:44:02.601Z,9.43
2018-10-06T03:46:30.675Z,7.23
2018-10-06T03:49:00.186Z,5.13
2018-10-06T03:51:28.641Z,9.30
2018-10-06T03:53:56.996Z,4.63
2018-10-06T03:56:25.468Z,5.13
2018-10-06T03:58:53.757Z,5.43
2018-10-06T04:01:21.815Z,5.60
2018-10-06T04:03:50.783Z,5.70
2018-10-06T04:06:18.917Z,5.73
2018-10-06T04:08:47.632Z,7.60
2018-10-06T04:11:15.961Z,5.93
2018-10-06T04:13:44.411Z,5.07
2018-10-06T04:16:12.495Z,7.30
2018-10-06T04:18:40.358Z,4.77
2018-10-06T04:21:08.458Z,7.37
2018-10-06T04:23:36.523Z,4.73
2018-10-06T04:26:04.647Z,5.00
2018-10-06T04:28:32.727Z,5.10
2018-10-06T04:31:00.802Z,5.87
2018-10-06T04:33:28.889Z,7.47
2018-10-06T04:35:56.957Z,7.67
2018-10-06T04:38:25.038Z,7.27
2018-10-06T04:40:53.099Z,8.13
2018-10-06T04:43:21.171Z,7.97
2018-10-06T04:45:49.233Z,5.83
2018-10-06T04:48:17.298Z,7.07
2018-10-06T04:50:45.411Z,4.93
2018-10-06T04:53:13.491Z,4.73
2018-10-06T04:55:41.554Z,5.70
2018-10-06T04:58:09.676Z,4.77
2018-10-06T05:00:37.754Z,6.13
2018-10-06T05:03:05.987Z,5.30
2018-10-06T05:05:34.082Z,7.73
2018-10-06T05:08:02.151Z,6.67
2018-10-06T05:10:30.243Z,5.23
2018-10-06T05:12:58.329Z,7.53
2018-10-06T05:15:26.410Z,5.27
2018-10-06T05:17:55.122Z,6.33
2018-10-06T05:20:23.175Z,7.40
2018-10-06T05:22:51.238Z,5.43
2018-10-06T05:25:19.677Z,4.80
2018-10-06T05:27:48.115Z,5.73
2018-10-06T05:30:16.540Z,7.10
2018-10-06T05:32:45.066Z,6.00
2018-10-06T05:35:13.115Z,6.27
2018-10-06T05:37:41.226Z,6.93
2018-10-06T05:40:09.636Z,6.83
2018-10-06T05:42:37.909Z,10.03
2018-10-06T05:45:06.055Z,10.53
2018-10-06T05:47:34.399Z,7.87
2018-10-06T05:50:02.506Z,9.83
2018-10-06T05:52:30.642Z,9.57
2018-10-06T05:54:58.749Z,9.50
2018-10-06T05:57:26.960Z,9.67
2018-10-06T05:59:55.042Z,8.17
2018-10-06T06:02:23.234Z,10.73
2018-10-06T06:04:51.377Z,6.83
2018-10-06T06:07:19.539Z,5.90
2018-10-06T06:09:47.692Z,7.83
2018-10-06T06:12:15.758Z,5.27
2018-10-06T06:14:43.848Z,5.30
2018-10-06T06:17:11.922Z,6.97
2018-10-06T06:19:40.143Z,9.27
2018-10-06T06:22:08.298Z,6.77
2018-10-06T06:24:36.343Z,6.40
2018-10-06T06:27:04.412Z,7.97
2018-10-06T06:29:32.490Z,9.50
2018-10-06T06:32:00.555Z,13.37
2018-10-06T06:34:28.637Z,8.33
2018-10-06T06:36:56.726Z,11.63
2018-10-06T06:39:24.951Z,7.63
2018-10-06T06:41:53.013Z,10.23
2018-10-06T06:44:21.211Z,10.07
2018-10-06T06:46:49.198Z,11.43
2018-10-06T06:49:17.293Z,51.80
2018-10-06T06:51:45.377Z,13.17
2018-10-06T06:54:13.462Z,13.20
2018-10-06T06:56:41.540Z,19.53
2018-10-06T06:59:09.641Z,17.93
2018-10-06T07:01:37.734Z,16.97
2018-10-06T07:04:05.934Z,27.83
2018-10-06T07:06:34.071Z,25.70
2018-10-06T07:09:02.165Z,27.27
2018-10-06T07:11:30.544Z,21.80
2018-10-06T07:13:58.652Z,18.93
2018-10-06T07:16:26.743Z,19.80
2018-10-06T07:18:54.898Z,13.57
2018-10-06T07:21:23.000Z,16.43
2018-10-06T07:23:51.082Z,14.67
2018-10-06T07:26:19.178Z,21.93
2018-10-06T07:28:47.300Z,16.13
2018-10-06T07:31:15.395Z,15.77
2018-10-06T07:33:43.475Z,14.30
2018-10-06T07:36:11.565Z,15.70
2018-10-06T07:38:39.641Z,17.57
2018-10-06T07:41:07.730Z,15.07
2018-10-06T07:43:36.618Z,13.10
2018-10-06T07:46:04.809Z,15.10
2018-10-06T07:48:32.899Z,14.90
2018-10-06T07:51:00.977Z,15.93
2018-10-06T07:53:29.280Z,19.20
2018-10-06T07:55:57.699Z,17.60
2018-10-06T07:58:26.963Z,14.23
2018-10-06T08:00:55.683Z,15.97
2018-10-06T08:03:23.766Z,15.80
2018-10-06T08:05:52.835Z,13.93
2018-10-06T08:08:21.711Z,14.83
2018-10-06T08:10:49.853Z,13.80
2018-10-06T08:13:18.095Z,16.73
2018-10-06T08:15:46.207Z,16.50
2018-10-06T08:18:14.312Z,13.80
2018-10-06T08:20:42.399Z,13.47
2018-10-06T08:23:10.909Z,13.47
2018-10-06T08:25:39.057Z,14.57
2018-10-06T08:28:07.140Z,12.83
2018-10-06T08:30:35.314Z,15.47
2018-10-06T08:33:03.409Z,14.57
2018-10-06T08:35:31.498Z,18.03
2018-10-06T08:37:59.746Z,18.50
2018-10-06T08:40:38.958Z,14.43
2018-10-06T08:43:07.251Z,11.70
2018-10-06T08:45:35.389Z,13.43
2018-10-06T08:48:03.487Z,11.53
2018-10-06T08:50:31.622Z,12.50
2018-10-06T08:52:59.886Z,11.87
2018-10-06T08:55:27.991Z,15.40
2018-10-06T08:57:56.072Z,13.63
2018-10-06T09:00:24.174Z,12.20
2018-10-06T09:02:52.307Z,13.50
2018-10-06T09:05:20.376Z,13.67
2018-10-06T09:07:48.502Z,12.43
2018-10-06T09:10:16.598Z,11.60
2018-10-06T09:12:44.679Z,15.63
2018-10-06T09:15:12.774Z,16.07
2018-10-06T09:17:41.075Z,11.97
2018-10-06T09:20:09.259Z,11.70
2018-10-06T09:22:38.470Z,14.13
2018-10-06T09:25:06.943Z,10.60
2018-10-06T09:27:35.056Z,12.90
2018-10-06T09:30:03.127Z,11.77
2018-10-06T09:32:31.199Z,11.40
2018-10-06T09:34:59.283Z,12.87
2018-10-06T09:37:27.415Z,23.90
2018-10-06T09:39:55.840Z,11.50
2018-10-06T09:42:24.174Z,11.93
2018-10-06T09:44:52.184Z,11.27
2018-10-06T09:47:20.273Z,14.83
2018-10-06T09:49:48.580Z,10.43
2018-10-06T09:52:16.775Z,11.80
2018-10-06T09:54:45.515Z,10.57
2018-10-06T09:57:13.875Z,11.50
2018-10-06T09:59:42.002Z,10.33
2018-10-06T10:02:15.734Z,10.63
2018-10-06T10:04:43.815Z,10.97
2018-10-06T10:07:11.896Z,10.10
2018-10-06T10:09:40.080Z,10.33
2018-10-06T10:12:08.191Z,15.10
2018-10-06T10:14:36.260Z,11.03
2018-10-06T10:17:04.480Z,10.53
2018-10-06T10:19:32.567Z,15.37
2018-10-06T10:22:00.809Z,10.43
2018-10-06T10:24:28.894Z,13.03
2018-10-06T10:26:56.968Z,11.20
2018-10-06T10:29:25.072Z,9.17
2018-10-06T10:31:53.160Z,11.07
2018-10-06T10:34:21.423Z,11.10
2018-10-06T10:36:49.523Z,10.87
2018-10-06T10:39:17.680Z,12.40
2018-10-06T10:41:45.715Z,10.55
2018-10-06T10:44:13.939Z,12.20
2018-10-06T10:46:41.971Z,11.15
2018-10-06T10:49:10.090Z,9.13
2018-10-06T10:51:38.376Z,13.43
2018-10-06T10:54:06.443Z,11.22
2018-10-06T10:58:04.012Z,12.05
2018-10-06T11:00:32.178Z,12.00
2018-10-06T11:03:00.208Z,14.70
2018-10-06T11:05:28.280Z,9.40
2018-10-06T11:07:56.368Z,10.65
2018-10-06T11:10:24.478Z,20.25
2018-10-06T11:12:52.591Z,12.40
2018-10-06T11:15:20.677Z,8.48
2018-10-06T11:17:48.786Z,11.35
2018-10-06T11:20:17.237Z,12.35
2018-10-06T11:22:45.460Z,10.93
2018-10-06T11:25:13.547Z,14.07
2018-10-06T11:27:47.169Z,12.35
2018-10-06T11:30:15.308Z,10.10
2018-10-06T11:32:43.396Z,10.00
2018-10-06T11:35:11.479Z,10.38
2018-10-06T11:37:39.826Z,15.98
2018-10-06T11:40:07.673Z,10.18
2018-10-06T11:42:35.803Z,9.80
2018-10-06T11:45:03.939Z,11.60
2018-10-06T11:47:32.039Z,14.20
2018-10-06T11:50:00.358Z,10.65
2018-10-06T11:52:28.371Z,11.83
2018-10-06T11:54:56.529Z,13.60
2018-10-06T11:57:24.647Z,15.63
2018-10-06T11:59:52.763Z,12.23
2018-10-06T12:02:20.839Z,14.38
2018-10-06T12:04:48.921Z,15.75
2018-10-06T12:07:17.103Z,13.58
2018-10-06T12:09:45.197Z,12.20
2018-10-06T12:12:13.315Z,13.80
2018-10-06T12:14:41.416Z,11.78
2018-10-06T12:17:09.608Z,17.07
2018-10-06T12:19:37.707Z,11.22
2018-10-06T12:22:06.979Z,13.10
2018-10-06T12:24:35.062Z,12.05
2018-10-06T12:27:03.139Z,11.18
2018-10-06T12:29:31.268Z,12.30
2018-10-06T12:31:59.479Z,13.03
2018-10-06T12:34:27.562Z,13.25
2018-10-06T12:36:55.724Z,14.43
2018-10-06T12:39:23.821Z,13.18
2018-10-06T12:41:52.003Z,13.38
2018-10-06T12:44:20.132Z,14.15
2018-10-06T12:46:48.250Z,13.05
2018-10-06T12:49:16.394Z,15.60
2018-10-06T12:51:44.589Z,12.15
2018-10-06T12:54:12.801Z,18.25
2018-10-06T12:56:40.907Z,11.85
2018-10-06T12:59:09.061Z,11.40
2018-10-06T13:01:37.147Z,14.28
2018-10-06T13:04:05.267Z,14.35
2018-10-06T13:06:33.360Z,15.48
2018-10-06T13:09:01.467Z,13.72
2018-10-06T13:11:29.572Z,11.28
2018-10-06T13:13:57.689Z,12.70
2018-10-06T13:16:25.833Z,19.02
2018-10-06T13:18:53.915Z,15.58
2018-10-06T13:21:22.016Z,14.13
2018-10-06T13:23:50.119Z,15.53
2018-10-06T13:26:18.205Z,12.55
2018-10-06T13:28:46.338Z,11.93
2018-10-06T13:31:14.447Z,15.88
2018-10-06T13:33:42.527Z,14.95
2018-10-06T13:36:10.680Z,11.53
2018-10-06T13:38:38.783Z,16.40
2018-10-06T13:41:07.153Z,12.73
2018-10-06T13:43:35.511Z,12.88
2018-10-06T13:46:03.623Z,12.23
2018-10-06T13:48:31.806Z,12.55
2018-10-06T13:50:59.954Z,10.93
2018-10-06T13:53:28.755Z,16.37
2018-10-06T13:55:57.023Z,11.30
2018-10-06T13:58:25.225Z,10.50
2018-10-06T14:00:53.331Z,11.63
2018-10-06T14:03:21.531Z,10.90
2018-10-06T14:05:49.633Z,10.48
2018-10-06T14:08:17.745Z,9.90
2018-10-06T14:10:45.837Z,13.32
2018-10-06T14:13:13.923Z,10.88
2018-10-06T14:15:42.042Z,10.63
2018-10-06T14:18:10.398Z,11.60
2018-10-06T14:20:38.533Z,12.82
2018-10-06T14:23:06.634Z,9.60
2018-10-06T14:25:34.707Z,10.28
2018-10-06T14:28:02.836Z,10.98
2018-10-06T14:30:30.949Z,10.23
2018-10-06T14:32:59.243Z,14.05
2018-10-06T14:35:27.575Z,12.90
2018-10-06T14:37:55.672Z,10.72
2018-10-06T14:40:24.101Z,10.88
2018-10-06T14:42:52.204Z,12.07
2018-10-06T14:45:20.287Z,10.90
2018-10-06T14:47:48.371Z,11.68
2018-10-06T14:50:16.543Z,13.62
2018-10-06T14:52:44.608Z,10.28
2018-10-06T14:55:12.679Z,12.73
2018-10-06T14:57:40.766Z,12.95
2018-10-06T15:00:09.183Z,10.03
2018-10-06T15:02:37.308Z,14.33
2018-10-06T15:05:05.431Z,12.43
2018-10-06T15:07:33.569Z,10.00
2018-10-06T15:10:01.691Z,11.83
2018-10-06T15:12:29.765Z,11.78
2018-10-06T15:14:58.177Z,19.73
2018-10-06T15:17:26.252Z,14.25
2018-10-06T15:20:06.116Z,12.85
2018-10-06T15:22:34.222Z,14.00
2018-10-06T15:25:02.336Z,19.90
2018-10-06T15:27:30.411Z,15.70
2018-10-06T15:29:58.877Z,14.53
2018-10-06T15:32:27.070Z,16.35
2018-10-06T15:34:55.831Z,12.63
2018-10-06T15:37:23.911Z,14.87
2018-10-06T15:39:52.002Z,15.23
2018-10-06T15:42:20.103Z,15.13
2018-10-06T15:44:50.875Z,16.00
2018-10-06T15:47:18.977Z,12.47
2018-10-06T15:49:47.208Z,12.90
2018-10-06T15:52:17.364Z,11.95
2018-10-06T15:54:46.137Z,14.85
2018-10-06T15:57:14.237Z,14.93
2018-10-06T15:59:42.339Z,13.88
2018-10-06T16:02:10.450Z,12.13
2018-10-06T16:04:38.661Z,10.13
2018-10-06T16:07:07.233Z,8.88
2018-10-06T16:09:35.310Z,7.78
2018-10-06T16:12:05.239Z,13.70
2018-10-06T16:14:33.954Z,12.93
2018-10-06T16:17:02.887Z,8.13
2018-10-06T16:19:31.135Z,7.90
2018-10-06T16:21:59.281Z,10.35
2018-10-06T16:24:27.417Z,12.28
2018-10-06T16:26:55.523Z,10.80
2018-10-06T16:29:23.607Z,10.75
2018-10-06T16:31:51.735Z,8.33
2018-10-06T16:34:19.801Z,6.95
2018-10-06T16:36:47.875Z,9.85
2018-10-06T16:39:15.936Z,7.75
2018-10-06T16:41:44.025Z,8.95
2018-10-06T16:44:12.098Z,10.65
2018-10-06T16:46:40.225Z,7.83
2018-10-06T16:49:08.400Z,7.78
2018-10-06T16:51:36.493Z,9.35
2018-10-06T16:54:04.879Z,11.70
2018-10-06T16:56:32.985Z,9.35
2018-10-06T16:59:01.087Z,12.07
2018-10-06T17:01:29.180Z,6.37
2018-10-06T17:03:57.283Z,11.28
2018-10-06T17:06:25.415Z,10.93
2018-10-06T17:08:53.451Z,9.30
2018-10-06T17:11:21.566Z,8.43
2018-10-06T17:13:49.652Z,10.95
2018-10-06T17:16:17.785Z,10.78
2018-10-06T17:18:45.969Z,11.80
2018-10-06T17:21:14.148Z,14.13
2018-10-06T17:23:42.275Z,9.93
2018-10-06T17:26:10.347Z,17.27
2018-10-06T17:28:40.463Z,13.58
2018-10-06T17:31:08.646Z,11.78
2018-10-06T17:33:36.693Z,15.00
2018-10-06T17:36:04.946Z,18.85
2018-10-06T17:38:33.287Z,19.10
2018-10-06T17:41:01.379Z,15.50
2018-10-06T17:43:30.531Z,15.97
2018-10-06T17:45:58.772Z,15.55
2018-10-06T17:48:26.953Z,15.80
2018-10-06T17:50:55.343Z,16.45
2018-10-06T17:53:23.435Z,21.85
2018-10-06T17:55:51.550Z,19.92
2018-10-06T17:58:19.726Z,24.77
2018-10-06T18:00:47.827Z,19.02
2018-10-06T18:03:15.944Z,17.73
2018-10-06T18:05:44.010Z,20.90
2018-10-06T18:08:12.087Z,19.75
2018-10-06T18:10:40.195Z,20.43
2018-10-06T18:13:08.290Z,26.07
2018-10-06T18:15:36.357Z,26.87
2018-10-06T18:18:04.530Z,22.97
2018-10-06T18:20:32.836Z,21.23
2018-10-06T18:23:00.770Z,20.67
2018-10-06T18:25:28.867Z,24.03
2018-10-06T18:27:57.042Z,25.37
2018-10-06T18:30:25.188Z,23.13
2018-10-06T18:32:53.504Z,25.63
2018-10-06T18:35:21.620Z,30.70
2018-10-06T18:37:49.750Z,31.63
2018-10-06T18:40:17.859Z,23.97
2018-10-06T18:42:45.935Z,25.70
2018-10-06T18:45:14.020Z,25.53
2018-10-06T18:47:57.937Z,28.83
2018-10-06T18:50:26.106Z,41.23
2018-10-06T18:52:54.222Z,27.70
2018-10-06T18:55:22.299Z,27.10
2018-10-06T18:57:50.444Z,28.50
2018-10-06T19:00:18.604Z,26.67
2018-10-06T19:02:47.727Z,29.53
2018-10-06T19:05:15.809Z,35.53
2018-10-06T19:07:44.139Z,38.03
2018-10-06T19:10:12.282Z,37.80
2018-10-06T19:12:41.331Z,36.53
2018-10-06T19:15:09.489Z,39.27
2018-10-06T19:17:37.563Z,32.67
2018-10-06T19:20:06.602Z,34.50
2018-10-06T19:22:34.703Z,33.33
2018-10-06T19:25:02.767Z,44.60
2018-10-06T19:27:32.067Z,37.97
2018-10-06T19:30:00.235Z,41.43
2018-10-06T19:32:28.309Z,41.50
2018-10-06T19:34:56.445Z,48.20
2018-10-06T19:37:24.535Z,50.23
2018-10-06T19:39:52.862Z,66.60
2018-10-06T19:42:20.970Z,56.70
2018-10-06T19:44:49.268Z,65.42
2018-10-06T19:47:17.360Z,59.33
2018-10-06T19:49:45.459Z,49.27
2018-10-06T19:52:13.638Z,55.87
2018-10-06T19:54:41.711Z,56.17
2018-10-06T19:57:09.778Z,56.27
2018-10-06T19:59:41.715Z,56.60
2018-10-06T20:02:10.164Z,58.87
2018-10-06T20:04:38.281Z,58.50
2018-10-06T20:07:10.910Z,54.83
2018-10-06T20:09:39.090Z,55.00
2018-10-06T20:12:07.277Z,53.30
2018-10-06T20:14:35.663Z,52.23
2018-10-06T20:17:03.790Z,57.53
2018-10-06T20:19:32.530Z,56.80
2018-10-06T20:22:01.787Z,52.13
2018-10-06T20:24:29.882Z,53.13
2018-10-06T20:26:58.004Z,61.87
2018-10-06T20:29:26.707Z,55.20
2018-10-06T20:31:54.802Z,52.40
2018-10-06T20:34:22.894Z,57.53
2018-10-06T20:36:51.027Z,47.67
2018-10-06T20:39:19.156Z,54.80
2018-10-06T20:41:47.359Z,55.13
2018-10-06T20:44:15.483Z,52.00
2018-10-06T20:46:43.579Z,50.50
2018-10-06T20:49:11.659Z,47.40
2018-10-06T20:51:39.730Z,42.23
2018-10-06T20:54:07.824Z,48.17
2018-10-06T20:56:36.559Z,37.67
2018-10-06T20:59:04.842Z,37.73
2018-10-06T21:01:47.280Z,36.13
2018-10-06T21:04:15.334Z,31.97
2018-10-06T21:06:43.407Z,31.03
2018-10-06T21:09:12.580Z,27.80
2018-10-06T21:11:41.134Z,35.13
2018-10-06T21:14:09.241Z,38.50
2018-10-06T21:16:38.124Z,28.23
2018-10-06T21:19:07.095Z,27.53
2018-10-06T21:21:35.191Z,27.90
2018-10-06T21:24:03.263Z,30.47
2018-10-06T21:26:31.345Z,29.27
2018-10-06T21:28:59.449Z,23.13
2018-10-06T21:31:29.641Z,28.00
2018-10-06T21:33:57.641Z,23.93
2018-10-06T21:36:26.266Z,29.57
2018-10-06T21:38:54.412Z,34.50
2018-10-06T21:41:22.414Z,30.07
2018-10-06T21:43:50.617Z,26.93
2018-10-06T21:46:18.959Z,21.57
2018-10-06T21:48:47.360Z,24.87
2018-10-06T21:51:15.479Z,24.03
2018-10-06T21:53:43.556Z,23.43
2018-10-06T21:56:11.647Z,20.53
2018-10-06T21:58:39.779Z,26.00
2018-10-06T22:01:11.167Z,26.87
2018-10-06T22:03:39.919Z,21.50
2018-10-06T22:06:08.136Z,19.97
2018-10-06T22:08:36.442Z,23.73
2018-10-06T22:11:04.684Z,16.73
2018-10-06T22:13:32.773Z,16.50
2018-10-06T22:16:00.863Z,21.80
2018-10-06T22:18:28.965Z,16.77
2018-10-06T22:20:57.090Z,12.40
2018-10-06T22:23:25.477Z,13.20
2018-10-06T22:25:53.570Z,12.57
2018-10-06T22:28:21.650Z,14.13
2018-10-06T22:30:49.730Z,13.83
2018-10-06T22:33:17.927Z,14.33
2018-10-06T22:35:48.094Z,12.37
2018-10-06T22:40:49.386Z,14.47
2018-10-06T22:43:27.546Z,12.23
2018-10-06T22:46:00.698Z,10.33
2018-10-06T22:48:36.100Z,10.00
2018-10-06T22:51:42.620Z,12.97
2018-10-06T22:54:18.769Z,10.17
2018-10-06T22:56:53.467Z,10.63
2018-10-06T23:00:14.839Z,8.97
2018-10-06T23:02:55.909Z,8.13
2018-10-06T23:05:24.733Z,8.37
2018-10-06T23:07:57.104Z,7.53
2018-10-06T23:10:25.176Z,7.50
2018-10-06T23:13:16.868Z,6.07
2018-10-06T23:15:48.515Z,4.27
2018-10-06T23:18:21.388Z,6.37
2018-10-06T23:20:56.141Z,7.17
2018-10-06T23:23:28.174Z,5.87
2018-10-06T23:25:56.980Z,3.83
2018-10-06T23:28:32.054Z,5.50
2018-10-06T23:31:02.374Z,6.53
2018-10-06T23:33:34.509Z,11.07
2018-10-06T23:36:06.842Z,4.47
2018-10-06T23:38:42.330Z,1.77
2018-10-06T23:41:16.968Z,4.40
2018-10-06T23:43:49.991Z,1.53
2018-10-06T23:46:19.561Z,4.17
2018-10-06T23:48:47.627Z,3.00
2018-10-06T23:51:15.712Z,3.80
2018-10-06T23:53:43.791Z,1.73
2018-10-06T23:56:13.883Z,3.93
2018-10-06T23:58:41.953Z,5.23
